METAR Data
IDs: Format: Raw Decoded Include TAF

Data at: 1400 UTC 10 Aug 2022

KPMD 101353Z 04005KT 10SM CLR 23/07 A3008 RMK AO2 SLP155 T02330067 $
KPMD 101253Z 00000KT 10SM CLR 23/06 A3005 RMK AO2 SLP145 T02330061 $
KPMD 101153Z AUTO 18007KT 10SM CLR 23/06 A3005 RMK AO2 SLP142 T02280061 10278 20228 50001 $
KPMD 101053Z AUTO 20007KT 10SM CLR 24/07 A3005 RMK AO2 SLP141 T02390072 $
KPMD 100953Z AUTO 23004KT 10SM CLR 25/08 A3004 RMK AO2 SLP138 T02500083 $
KPMD 100853Z AUTO 23008KT 10SM CLR 26/08 A3004 RMK AO2 SLP136 T02610078 51000 $
KPMD 100753Z AUTO 22010KT 10SM CLR 27/07 A3004 RMK AO2 SLP136 T02720072 403670250 $
KPMD 100653Z AUTO 26011KT 10SM CLR 27/07 A3005 RMK AO2 SLP139 T02720067 $
KPMD 100553Z AUTO 29011KT 10SM CLR 27/06 A3004 RMK AO2 SLP138 T02720061 10350 20272 51019 $
KPMD 100453Z 28009KT 10SM CLR 28/07 A3004 RMK AO2 SLP136 T02780067 $
KPMD 100353Z 27017KT 10SM CLR 29/07 A3001 RMK AO2 SLP127 T02890067 $
KPMD 100253Z 26016G19KT 10SM CLR 31/06 A2998 RMK AO2 SLP118 T03060061 53014 $
KPMD 100153Z 23014KT 10SM CLR 32/07 A2996 RMK AO2 PK WND 22029/0110 SLP112 T03220072 $
KPMD 100053Z 23021G33KT 10SM CLR 34/07 A2994 RMK AO2 PK WND 25033/0047 SLP106 T03390067 $
KPMD 092353Z 23026G34KT 10SM CLR 35/07 A2993 RMK AO2 PK WND 23034/2347 SLP101 T03500072 10367 20328 56015 $
KPMD 092253Z 24021G30KT 10SM CLR 36/06 A2995 RMK AO2 PK WND 23030/2227 SLP104 T03610061 $
KPMD 092153Z 23018G23KT 10SM CLR 37/07 A2996 RMK AO2 PK WND 22027/2108 SLP109 T03670072 $
KPMD 092053Z 23017G25KT 10SM CLR 37/08 A2998 RMK AO2 SLP116 T03670083 58014 $
KPMD 091953Z 21017G23KT 10SM CLR 36/08 A3000 RMK AO2 SLP121 T03610078 $
KPMD 091853Z 14005KT 10SM CLR 34/09 A3002 RMK AO2 SLP128 T03390089 $
KPMD 091753Z VRB03KT 10SM CLR 33/09 A3003 RMK AO2 SLP132 T03330094 10333 20250 50002 $
KPMD 091653Z 34005KT 10SM CLR 32/07 A3003 RMK AO2 SLP134 T03220072 $
KPMD 091553Z VRB03KT 10SM CLR 30/08 A3003 RMK AO2 SLP135 T03000083 $
KPMD 091453Z 21006KT 10SM CLR 28/09 A3002 RMK AO2 SLP133 T02780094 51010 $
KPMD 091353Z 19007KT 10SM CLR 26/11 A3002 RMK AO2 SLP131 T02560106 $
KPMD 091253Z 17005KT 10SM CLR 25/10 A3000 RMK AO2 SLP126 T02500100 $
KPMD 091153Z AUTO 20003KT 10SM CLR 26/04 A2999 RMK AO2 SLP119 T02560044 10283 20256 53001 $
KPMD 091053Z AUTO 29007KT 10SM CLR 27/06 A2999 RMK AO2 SLP116 T02670056 $
KPMD 090953Z AUTO 28003KT 10SM CLR 26/03 A2999 RMK AO2 SLP117 T02610033 $
KPMD 090853Z AUTO 28005KT 10SM CLR 26/03 A2999 RMK AO2 SLP117 T02610028 58007 $
KPMD 090753Z AUTO 25003KT 10SM CLR 27/03 A3001 RMK AO2 SLP122 T02670033 403890228 $
KPMD 090653Z AUTO 26006KT 10SM CLR 28/06 A3001 RMK AO2 SLP124 T02780056 $
KPMD 090553Z AUTO 29010KT 10SM CLR 28/08 A3001 RMK AO2 SLP125 T02830078 10367 20283 51017 $
KPMD 090453Z AUTO 29009KT 10SM CLR 29/09 A3001 RMK AO2 SLP125 T02940089 $
KPMD 090353Z AUTO 22013G19KT 10SM CLR 31/11 A2998 RMK AO2 SLP115 T03060106 $
KPMD 090253Z AUTO 24009G18KT 10SM CLR 31/11 A2995 RMK AO2 SLP110 T03110111 53009 $